Time;durP1;ratioP1;P1;durP2;ratioP2;P2;SDS_P1;SDS_P2;PMS_P1;PMS_P2;Temp;Humidity;BMP_temperature;BMP_pressure;BME280_temperature;BME280_humidity;BME280_pressure;Samples;Min_cycle;Max_cycle;Signal;HPM_P1;HPM_P2
2023/01/20 00:02:12;;;;;;;0.80;0.80;;;-1.10;99.90;;;;;;4987811;28;20880;-81
2023/01/20 00:04:38;;;;;;;;;;;-1.10;99.90;;;;;;4990707;28;20034;-81
2023/01/20 00:07:04;;;;;;;0.70;0.70;;;-1.10;99.90;;;;;;4971582;28;19918;-82
2023/01/20 00:09:29;;;;;;;0.70;0.70;;;-0.90;99.90;;;;;;4990551;28;20396;-83
2023/01/20 00:11:55;;;;;;;0.70;0.70;;;-0.20;99.90;;;;;;4989516;28;20042;-82
2023/01/20 00:14:21;;;;;;;0.80;0.80;;;-1.10;99.90;;;;;;4975585;28;20047;-83
2023/01/20 00:16:46;;;;;;;0.60;0.60;;;-0.60;99.90;;;;;;4990543;28;20057;-82
2023/01/20 00:19:13;;;;;;;;;;;-1.10;99.90;;;;;;4994380;28;20038;-81
2023/01/20 00:21:39;;;;;;;0.80;0.80;;;-1.00;99.90;;;;;;4993122;28;19918;-80
2023/01/20 00:24:05;;;;;;;1.15;1.15;;;-1.00;99.90;;;;;;4990045;28;20061;-81
2023/01/20 00:26:31;;;;;;;;;;;-1.00;99.90;;;;;;4992192;28;20046;-80
2023/01/20 00:28:57;;;;;;;0.80;0.80;;;-1.00;99.90;;;;;;4991147;28;19924;-83
2023/01/20 00:31:25;;;;;;;1.30;1.20;;;-1.00;99.90;;;;;;4991567;28;20038;-81
2023/01/20 00:33:52;;;;;;;0.80;0.80;;;-0.80;99.90;;;;;;4989067;28;20050;-80
2023/01/20 00:36:19;;;;;;;0.70;0.70;;;-0.40;99.90;;;;;;4998412;28;20128;-81
2023/01/20 00:38:45;;;;;;;0.88;0.88;;;-1.10;99.90;;;;;;4995614;28;20586;-81
2023/01/20 00:41:12;;;;;;;0.90;0.90;;;-1.10;99.90;;;;;;4991859;28;20524;-84
2023/01/20 00:43:38;;;;;;;1.00;1.00;;;-0.90;99.90;;;;;;4981193;28;20085;-82
2023/01/20 00:46:05;;;;;;;1.75;1.65;;;-1.20;99.90;;;;;;4982034;28;20495;-82
2023/01/20 00:48:31;;;;;;;3.15;2.00;;;-0.70;99.90;;;;;;4940760;28;20054;-81
2023/01/20 00:50:56;;;;;;;;;;;-1.10;99.90;;;;;;4992855;28;20042;-83
2023/01/20 00:53:22;;;;;;;0.80;0.80;;;-1.10;99.90;;;;;;4991279;28;19928;-81
2023/01/20 00:55:48;;;;;;;1.00;1.00;;;-1.10;99.90;;;;;;4989553;28;20564;-82
2023/01/20 00:58:14;;;;;;;0.70;0.70;;;-0.70;99.90;;;;;;4992603;28;20048;-84
2023/01/20 01:00:40;;;;;;;0.95;0.95;;;0.30;99.90;;;;;;4991608;28;20689;-81
2023/01/20 01:03:05;;;;;;;0.70;0.70;;;-1.10;99.90;;;;;;4989237;28;20102;-82
2023/01/20 01:05:32;;;;;;;0.70;0.70;;;-1.10;99.90;;;;;;4990505;28;20038;-83
2023/01/20 01:07:57;;;;;;;0.60;0.60;;;-1.10;99.90;;;;;;4967763;28;20129;-81
2023/01/20 01:10:23;;;;;;;0.70;0.70;;;-0.40;99.90;;;;;;4962944;28;20042;-82
2023/01/20 01:12:49;;;;;;;1.10;1.10;;;0.90;99.90;;;;;;4962084;28;20035;-81
2023/01/20 01:15:15;;;;;;;0.80;0.80;;;-1.00;99.90;;;;;;4994457;28;20384;-82
2023/01/20 01:17:42;;;;;;;0.80;0.80;;;-1.00;99.90;;;;;;4988767;28;20121;-82
2023/01/20 01:20:10;;;;;;;0.63;0.63;;;-0.60;99.90;;;;;;4991326;28;20042;-84
2023/01/20 01:22:36;;;;;;;0.65;0.65;;;-0.90;99.90;;;;;;4957201;28;20076;-83
2023/01/20 01:25:01;;;;;;;0.50;0.50;;;-0.80;99.90;;;;;;4954475;28;20155;-81
2023/01/20 01:27:28;;;;;;;0.60;0.60;;;-0.70;99.90;;;;;;4994881;28;20097;-81
2023/01/20 01:29:54;;;;;;;1.00;1.00;;;-0.80;99.90;;;;;;4986342;28;20034;-83
2023/01/20 01:32:21;;;;;;;0.50;0.50;;;-0.80;99.90;;;;;;4990017;28;20053;-84
2023/01/20 01:34:46;;;;;;;0.80;0.80;;;-0.80;99.90;;;;;;4972215;28;20044;-81
2023/01/20 01:37:13;;;;;;;0.60;0.60;;;-0.70;99.90;;;;;;4984559;28;20035;-83
2023/01/20 01:39:38;;;;;;;;;;;-0.70;99.90;;;;;;4975125;28;20137;-81
2023/01/20 01:42:17;;;;;;;0.52;0.52;;;-0.70;99.90;;;;;;4982854;28;20411;-81
2023/01/20 01:45:10;;;;;;;1.52;1.50;;;-0.70;99.90;;;;;;4981502;28;20057;-82
2023/01/20 01:47:52;;;;;;;1.23;1.20;;;-0.70;99.90;;;;;;5001618;28;20145;-80
2023/01/20 01:50:46;;;;;;;0.60;0.60;;;-0.70;99.90;;;;;;4972227;28;20046;-80
2023/01/20 01:53:14;;;;;;;0.70;0.70;;;-0.70;99.90;;;;;;4967066;28;20213;-83
2023/01/20 01:55:44;;;;;;;0.60;0.60;;;-0.70;99.90;;;;;;4986946;28;20081;-82
2023/01/20 01:58:14;;;;;;;1.25;1.25;;;-0.70;99.90;;;;;;4993733;28;20077;-80
2023/01/20 02:00:40;;;;;;;0.70;0.70;;;-0.60;99.90;;;;;;4966180;28;20046;-80
2023/01/20 02:03:06;;;;;;;0.60;0.60;;;-0.70;99.90;;;;;;4970314;28;20038;-80
2023/01/20 02:05:35;;;;;;;0.70;0.70;;;-0.70;99.90;;;;;;4988302;28;20057;-84
2023/01/20 02:08:03;;;;;;;0.77;0.77;;;-0.80;99.90;;;;;;4988018;28;20069;-84
2023/01/20 02:10:30;;;;;;;0.68;0.68;;;-0.90;99.90;;;;;;4989426;28;20046;-84
2023/01/20 02:12:56;;;;;;;0.57;0.57;;;-0.90;99.90;;;;;;4954944;28;20128;-82
2023/01/20 02:15:26;;;;;;;1.15;1.13;;;-1.00;99.90;;;;;;4969138;28;20045;-84
2023/01/20 02:18:12;;;;;;;0.77;0.77;;;-1.00;99.90;;;;;;4991472;28;20035;-81
2023/01/20 02:20:53;;;;;;;1.00;1.00;;;-1.00;99.90;;;;;;4988354;28;20041;-85
2023/01/20 02:23:53;;;;;;;1.02;1.02;;;-1.10;99.90;;;;;;4987075;28;20070;-83
2023/01/20 02:26:31;;;;;;;0.70;0.70;;;-1.00;99.90;;;;;;4986542;28;20186;-84
2023/01/20 02:29:41;;;;;;;0.73;0.73;;;-1.10;99.90;;;;;;4985889;28;20077;-85
2023/01/20 02:32:31;;;;;;;0.70;0.70;;;-1.00;99.90;;;;;;4986750;28;20477;-83
2023/01/20 02:35:04;;;;;;;0.75;0.75;;;-1.00;99.90;;;;;;4987390;28;20061;-85
2023/01/20 02:38:05;;;;;;;0.80;0.80;;;-1.00;99.90;;;;;;4998320;28;20038;-85
2023/01/20 02:40:53;;;;;;;0.60;0.60;;;-1.00;99.90;;;;;;4985220;28;20058;-82
2023/01/20 02:43:27;;;;;;;0.88;0.88;;;-1.00;99.90;;;;;;4984933;28;20034;-79
2023/01/20 02:45:58;;;;;;;0.65;0.65;;;-1.00;99.90;;;;;;5009449;28;20156;-85
2023/01/20 02:48:53;;;;;;;0.70;0.70;;;-0.50;99.90;;;;;;4970475;28;20049;-81
2023/01/20 02:51:26;;;;;;;0.73;0.73;;;-0.90;99.90;;;;;;5000387;28;20500;-81
2023/01/20 02:54:00;;;;;;;0.73;0.73;;;-0.90;99.90;;;;;;4987456;28;20046;-81
2023/01/20 02:56:28;;;;;;;0.65;0.65;;;-0.90;99.90;;;;;;5005124;28;20042;-81
2023/01/20 02:59:05;;;;;;;1.55;1.45;;;-0.90;99.90;;;;;;4987584;28;20454;-84
2023/01/20 03:01:37;;;;;;;0.70;0.70;;;1.10;99.90;;;;;;5001654;28;20074;-84
2023/01/20 03:04:08;;;;;;;0.50;0.50;;;-0.90;99.90;;;;;;4979636;28;20057;-81
2023/01/20 03:06:43;;;;;;;0.60;0.60;;;-0.80;99.90;;;;;;4998926;28;20440;-81
2023/01/20 03:09:14;;;;;;;0.73;0.73;;;-0.80;99.90;;;;;;4987821;28;20054;-79
2023/01/20 03:11:45;;;;;;;0.70;0.70;;;-0.90;99.90;;;;;;4987411;28;20121;-83
2023/01/20 03:14:13;;;;;;;0.70;0.70;;;-0.80;99.90;;;;;;4985444;28;20055;-85
2023/01/20 03:16:40;;;;;;;0.70;0.70;;;-0.80;99.90;;;;;;4972079;28;20138;-83
2023/01/20 03:19:05;;;;;;;0.80;0.80;;;-0.80;99.90;;;;;;4969331;28;20038;-82
2023/01/20 03:21:32;;;;;;;0.57;0.57;;;-0.50;99.90;;;;;;4983371;28;20077;-84
2023/01/20 03:24:03;;;;;;;0.60;0.60;;;-0.90;99.90;;;;;;5003749;28;20057;-80
2023/01/20 03:26:30;;;;;;;1.77;1.67;;;-0.60;99.90;;;;;;4983206;28;20432;-83
2023/01/20 03:28:55;;;;;;;;;;;-0.90;99.90;;;;;;4971734;28;20069;-81
2023/01/20 03:31:31;;;;;;;0.70;0.70;;;-0.50;99.90;;;;;;4984071;28;19972;-84
2023/01/20 03:34:00;;;;;;;0.83;0.83;;;-0.90;99.90;;;;;;4973550;28;20038;-81
2023/01/20 03:36:29;;;;;;;0.55;0.55;;;-0.90;99.90;;;;;;4973164;28;20297;-83
2023/01/20 03:38:57;;;;;;;0.95;0.95;;;-0.90;99.90;;;;;;4996714;28;20114;-82
2023/01/20 03:41:42;;;;;;;0.70;0.70;;;-0.80;99.90;;;;;;4986052;28;20105;-82
2023/01/20 03:44:34;;;;;;;0.80;0.80;;;-0.70;99.90;;;;;;4987234;28;20121;-82
2023/01/20 03:47:21;;;;;;;0.60;0.60;;;-0.70;99.90;;;;;;4975585;28;20129;-86
2023/01/20 03:50:12;;;;;;;0.90;0.90;;;-0.50;99.90;;;;;;4973219;28;20054;-86
2023/01/20 03:52:48;;;;;;;0.65;0.65;;;-0.40;99.90;;;;;;4974312;28;20084;-83
2023/01/20 03:55:21;;;;;;;0.50;0.50;;;-0.40;99.90;;;;;;4971588;28;20069;-83
2023/01/20 03:57:54;;;;;;;0.80;0.80;;;-0.40;99.90;;;;;;4990000;28;20038;-82
2023/01/20 04:00:21;;;;;;;0.90;0.90;;;0.20;99.90;;;;;;4991879;28;20046;-83
2023/01/20 04:02:49;;;;;;;0.60;0.60;;;-0.40;99.90;;;;;;4993270;28;20042;-82
2023/01/20 04:05:15;;;;;;;1.10;1.10;;;0.10;99.90;;;;;;4977082;28;20046;-83
2023/01/20 04:07:44;;;;;;;0.85;0.80;;;-0.40;99.90;;;;;;4994622;28;20053;-84
2023/01/20 04:10:14;;;;;;;1.10;1.10;;;-0.30;99.90;;;;;;4989931;28;20059;-83
2023/01/20 04:12:40;;;;;;;0.68;0.68;;;-0.30;99.90;;;;;;4990016;28;20039;-84
2023/01/20 04:15:07;;;;;;;1.38;1.35;;;0.40;99.90;;;;;;5003144;28;20031;-84
2023/01/20 04:17:33;;;;;;;3.40;3.15;;;-1.10;99.90;;;;;;4975602;28;20038;-83
2023/01/20 04:20:05;;;;;;;0.80;0.80;;;-0.30;99.90;;;;;;4976936;28;20412;-85
2023/01/20 04:22:53;;;;;;;2.33;2.13;;;-0.30;99.90;;;;;;5008474;28;20054;-81
2023/01/20 04:25:24;;;;;;;0.63;0.63;;;0.60;99.90;;;;;;4990618;28;20055;-81
2023/01/20 04:27:50;;;;;;;0.55;0.55;;;-0.30;99.90;;;;;;4998589;28;20073;-85
2023/01/20 04:30:17;;;;;;;0.80;0.80;;;-0.30;99.90;;;;;;4996820;28;20052;-84
2023/01/20 04:32:42;;;;;;;;;;;-0.30;99.90;;;;;;4991053;28;20917;-83
2023/01/20 04:35:14;;;;;;;1.00;1.00;;;-0.30;99.90;;;;;;5001660;28;19975;-83
2023/01/20 04:37:40;;;;;;;0.70;0.70;;;0.60;99.90;;;;;;4982300;28;20623;-86
2023/01/20 04:40:06;;;;;;;4.78;1.55;;;-0.40;99.90;;;;;;4991666;28;20050;-83
2023/01/20 04:42:32;;;;;;;0.90;0.90;;;-0.30;99.90;;;;;;4998454;28;20046;-84
2023/01/20 04:44:58;;;;;;;0.90;0.90;;;-0.30;99.90;;;;;;5000043;28;20046;-82
2023/01/20 04:47:24;;;;;;;1.00;1.00;;;-0.30;99.90;;;;;;4986787;28;20050;-83
2023/01/20 04:49:49;;;;;;;3.40;3.20;;;-0.40;99.90;;;;;;4987177;28;20034;-83
2023/01/20 04:52:16;;;;;;;0.68;0.68;;;-0.40;99.90;;;;;;4975581;28;20050;-83
2023/01/20 04:54:42;;;;;;;1.05;0.80;;;-0.40;99.90;;;;;;4986413;28;20046;-86
2023/01/20 04:57:07;;;;;;;2.47;2.28;;;-0.40;99.90;;;;;;4991590;28;20045;-84
2023/01/20 04:59:33;;;;;;;0.80;0.80;;;-0.40;99.90;;;;;;4988667;28;20550;-82
2023/01/20 05:01:59;;;;;;;0.90;0.90;;;-0.40;99.90;;;;;;4983801;28;20069;-85
2023/01/20 05:04:25;;;;;;;0.80;0.80;;;-0.40;99.90;;;;;;4986533;28;20101;-84
2023/01/20 05:06:50;;;;;;;0.70;0.70;;;-0.40;99.90;;;;;;4989350;28;20464;-81
2023/01/20 05:09:16;;;;;;;1.13;1.13;;;-0.40;99.90;;;;;;4970266;28;20049;-80
2023/01/20 05:11:43;;;;;;;0.85;0.85;;;-0.40;99.90;;;;;;5002243;28;20062;-82
2023/01/20 05:14:10;;;;;;;0.80;0.80;;;-0.30;99.90;;;;;;4990990;28;20084;-84
2023/01/20 05:16:36;;;;;;;0.80;0.80;;;-0.50;99.90;;;;;;4989405;28;20397;-80
2023/01/20 05:19:02;;;;;;;0.80;0.80;;;0.10;99.90;;;;;;4989135;28;20154;-82
2023/01/20 05:21:28;;;;;;;0.80;0.80;;;-0.50;99.90;;;;;;4971699;28;20045;-83
2023/01/20 05:23:54;;;;;;;0.70;0.70;;;-0.50;99.90;;;;;;4989683;28;20108;-83
2023/01/20 05:26:22;;;;;;;0.77;0.77;;;-0.60;99.90;;;;;;4992611;28;20049;-84
2023/01/20 05:28:47;;;;;;;0.80;0.80;;;-0.60;99.90;;;;;;4991770;28;20046;-86
2023/01/20 05:31:13;;;;;;;0.88;0.88;;;-0.40;99.90;;;;;;4984542;28;20069;-83
2023/01/20 05:33:39;;;;;;;0.77;0.77;;;-0.60;99.90;;;;;;4989491;28;20476;-84
2023/01/20 05:36:05;;;;;;;0.60;0.60;;;-0.50;99.90;;;;;;4972352;28;20034;-83
2023/01/20 05:38:31;;;;;;;0.80;0.80;;;-0.50;99.90;;;;;;4989394;28;20096;-82
2023/01/20 05:41:01;;;;;;;0.80;0.80;;;0.80;99.90;;;;;;4989021;28;20121;-82
2023/01/20 05:43:27;;;;;;;0.70;0.70;;;0.60;99.90;;;;;;4972594;28;20472;-82
2023/01/20 05:45:53;;;;;;;0.88;0.88;;;0.50;99.90;;;;;;4983788;28;20091;-83
2023/01/20 05:48:20;;;;;;;0.80;0.80;;;0.40;99.90;;;;;;5006092;28;20118;-82
2023/01/20 05:50:45;;;;;;;1.83;1.75;;;-0.60;99.90;;;;;;4983970;28;20035;-82
2023/01/20 05:53:11;;;;;;;1.33;1.33;;;-0.60;99.90;;;;;;4971597;28;20177;-84
2023/01/20 05:55:37;;;;;;;0.85;0.85;;;-0.60;99.90;;;;;;4989211;28;20069;-82
2023/01/20 05:58:04;;;;;;;1.17;1.08;;;-0.60;99.90;;;;;;4972434;28;20049;-82
2023/01/20 06:00:30;;;;;;;0.85;0.85;;;0.40;99.90;;;;;;4988355;28;20038;-80
2023/01/20 06:02:57;;;;;;;0.70;0.70;;;0.00;99.90;;;;;;4989183;28;20484;-80
2023/01/20 06:05:23;;;;;;;0.93;0.93;;;-0.70;99.90;;;;;;4987784;28;20045;-84
2023/01/20 06:07:49;;;;;;;0.80;0.80;;;-0.70;99.90;;;;;;4969370;28;20034;-82
2023/01/20 06:10:15;;;;;;;0.90;0.90;;;-0.60;99.90;;;;;;4965568;28;20165;-83
2023/01/20 06:12:41;;;;;;;0.60;0.60;;;-0.70;99.90;;;;;;4972307;28;20050;-80
2023/01/20 06:15:08;;;;;;;0.77;0.77;;;-0.60;99.90;;;;;;4970951;28;20046;-82
2023/01/20 06:17:34;;;;;;;0.80;0.80;;;-0.60;99.90;;;;;;4987609;28;20084;-83
2023/01/20 06:19:59;;;;;;;;;;;-0.60;99.90;;;;;;5001553;28;20125;-84
2023/01/20 06:22:26;;;;;;;1.33;1.33;;;-0.60;99.90;;;;;;4988898;28;20064;-83
2023/01/20 06:24:51;;;;;;;1.65;1.55;;;-0.60;99.90;;;;;;4987383;28;20034;-85
2023/01/20 06:27:18;;;;;;;1.00;1.00;;;-0.60;99.90;;;;;;4983234;28;20400;-77
2023/01/20 06:29:43;;;;;;;0.70;0.70;;;-0.60;99.90;;;;;;4985053;28;20050;-78
2023/01/20 06:32:10;;;;;;;0.65;0.65;;;-0.60;99.90;;;;;;4984904;28;20051;-78
2023/01/20 06:34:35;;;;;;;0.70;0.70;;;-0.60;99.90;;;;;;4986901;28;20113;-78
2023/01/20 06:37:01;;;;;;;0.90;0.90;;;-0.40;99.90;;;;;;4984875;28;20104;-79
2023/01/20 06:39:27;;;;;;;;;;;-0.60;99.90;;;;;;4983215;28;20042;-79
2023/01/20 06:41:56;;;;;;;0.60;0.60;;;-0.60;99.90;;;;;;4974329;28;19987;-76
2023/01/20 06:44:22;;;;;;;0.70;0.70;;;-0.60;99.90;;;;;;4980171;28;20105;-77
2023/01/20 06:46:47;;;;;;;0.80;0.80;;;-0.40;99.90;;;;;;4982423;28;20532;-77
2023/01/20 06:49:14;;;;;;;0.70;0.70;;;-0.50;99.90;;;;;;4985035;28;20061;-78
2023/01/20 06:51:40;;;;;;;1.63;1.52;;;-0.50;99.90;;;;;;4983889;28;20137;-79
2023/01/20 06:54:06;;;;;;;;;;;-0.50;99.90;;;;;;4982405;28;20125;-78
2023/01/20 06:56:31;;;;;;;0.90;0.90;;;-0.50;99.90;;;;;;4985204;28;20047;-78
2023/01/20 06:58:57;;;;;;;0.68;0.68;;;-0.50;99.90;;;;;;4984715;28;20805;-77
2023/01/20 07:01:30;;;;;;;1.77;1.67;;;-0.50;99.90;;;;;;4986340;28;20050;-78
2023/01/20 07:03:56;;;;;;;1.00;1.00;;;-0.40;99.90;;;;;;4988267;28;20049;-78
2023/01/20 07:06:38;;;;;;;0.90;0.90;;;-0.50;99.90;;;;;;4985185;28;20038;-78
2023/01/20 07:09:06;;;;;;;0.70;0.70;;;-0.40;99.90;;;;;;4967589;28;20050;-78
2023/01/20 07:11:33;;;;;;;0.70;0.70;;;-0.40;99.90;;;;;;4991347;28;20053;-78
2023/01/20 07:14:00;;;;;;;1.65;1.55;;;-0.50;99.90;;;;;;4985360;28;20128;-78
2023/01/20 07:16:25;;;;;;;1.15;1.15;;;-0.40;99.90;;;;;;4977774;28;20080;-78
2023/01/20 07:18:52;;;;;;;0.80;0.80;;;-0.40;99.90;;;;;;4983189;28;20065;-78
2023/01/20 07:21:19;;;;;;;0.80;0.80;;;-0.30;99.90;;;;;;4984903;28;20158;-78
2023/01/20 07:23:45;;;;;;;0.82;0.82;;;-0.50;99.90;;;;;;4969342;28;20454;-78
2023/01/20 07:26:14;;;;;;;3.20;3.05;;;-0.40;99.90;;;;;;4972910;28;20046;-78
2023/01/20 07:28:40;;;;;;;2.00;1.90;;;-0.40;99.90;;;;;;4988756;28;20053;-78
2023/01/20 07:31:12;;;;;;;1.15;1.15;;;-0.40;99.90;;;;;;4992104;28;20047;-78
2023/01/20 07:33:38;;;;;;;7.32;2.15;;;-0.40;99.90;;;;;;4986088;28;20041;-78
2023/01/20 07:36:06;;;;;;;0.60;0.60;;;-0.40;99.90;;;;;;4988523;28;20046;-78
2023/01/20 07:38:32;;;;;;;1.60;1.52;;;-0.40;99.90;;;;;;4988036;28;20122;-78
2023/01/20 07:40:58;;;;;;;0.80;0.80;;;-0.30;99.90;;;;;;4987919;28;20038;-78
2023/01/20 07:43:24;;;;;;;0.70;0.70;;;-0.40;99.90;;;;;;4988883;28;20052;-78
2023/01/20 07:45:58;;;;;;;0.90;0.90;;;-0.40;99.90;;;;;;4988335;28;20038;-78
2023/01/20 07:48:24;;;;;;;0.98;0.98;;;-0.40;99.90;;;;;;4988667;28;20628;-78
2023/01/20 07:51:01;;;;;;;0.75;0.75;;;0.50;99.90;;;;;;4987987;28;20464;-79
2023/01/20 07:53:32;;;;;;;2.92;2.05;;;0.60;99.90;;;;;;4987221;28;20070;-79
2023/01/20 07:56:10;;;;;;;0.60;0.60;;;-0.40;99.90;;;;;;4992245;28;20401;-77
2023/01/20 07:58:36;;;;;;;0.73;0.73;;;0.00;99.90;;;;;;4987592;28;20489;-79
2023/01/20 08:01:06;;;;;;;;;;;-0.20;99.90;;;;;;4991480;28;20488;-79
2023/01/20 08:03:32;;;;;;;0.57;0.57;;;-0.30;99.90;;;;;;4993178;28;19944;-79
2023/01/20 08:06:01;;;;;;;1.90;1.80;;;-0.20;99.90;;;;;;4972886;28;20043;-79
2023/01/20 08:08:27;;;;;;;0.93;0.93;;;-0.30;99.90;;;;;;4994041;28;20162;-79
2023/01/20 08:10:53;;;;;;;3.53;3.33;;;-0.20;99.90;;;;;;4990981;28;20086;-79
2023/01/20 08:13:19;;;;;;;0.70;0.70;;;-0.20;99.90;;;;;;4973098;28;20053;-79
2023/01/20 08:15:45;;;;;;;3.45;2.55;;;-0.20;99.90;;;;;;4971720;28;20046;-77
2023/01/20 08:18:10;;;;;;;1.00;1.00;;;-0.20;99.90;;;;;;4988279;28;20174;-79
2023/01/20 08:20:39;;;;;;;0.80;0.80;;;-0.20;99.90;;;;;;4970724;28;20046;-79
2023/01/20 08:23:05;;;;;;;2.67;2.55;;;-0.20;99.90;;;;;;4987219;28;20140;-79
2023/01/20 08:25:31;;;;;;;1.02;1.02;;;-0.10;99.90;;;;;;4984693;28;20094;-79
2023/01/20 08:27:57;;;;;;;0.80;0.80;;;-0.10;99.90;;;;;;4987377;28;20046;-79
2023/01/20 08:30:22;;;;;;;1.15;1.10;;;-0.10;99.90;;;;;;4988289;28;20042;-79
2023/01/20 08:32:48;;;;;;;0.73;0.73;;;-0.10;99.90;;;;;;5003390;28;20101;-77
2023/01/20 08:35:14;;;;;;;0.80;0.80;;;-0.10;99.90;;;;;;4982785;28;20118;-79
2023/01/20 08:37:39;;;;;;;0.70;0.70;;;-0.10;99.90;;;;;;4981961;28;20074;-77
2023/01/20 08:40:10;;;;;;;1.45;1.40;;;0.00;99.90;;;;;;4985875;28;20047;-80
2023/01/20 08:42:37;;;;;;;1.40;1.38;;;0.00;99.90;;;;;;4987192;28;20049;-78
2023/01/20 08:45:05;;;;;;;0.80;0.80;;;0.00;99.90;;;;;;4988745;28;20050;-78
2023/01/20 08:47:33;;;;;;;0.50;0.50;;;0.00;99.90;;;;;;4975246;28;20034;-78
2023/01/20 08:49:59;;;;;;;1.98;1.88;;;0.00;99.90;;;;;;4989682;28;20046;-78
2023/01/20 08:52:26;;;;;;;0.63;0.63;;;0.00;99.90;;;;;;4972616;28;20416;-78
2023/01/20 08:54:52;;;;;;;3.20;3.10;;;0.10;99.90;;;;;;4986725;28;20372;-78
2023/01/20 08:57:18;;;;;;;0.80;0.80;;;0.10;99.90;;;;;;4987452;28;20042;-78
2023/01/20 08:59:46;;;;;;;0.80;0.80;;;0.10;99.90;;;;;;4989429;28;20038;-78
2023/01/20 09:02:12;;;;;;;0.70;0.70;;;0.20;99.90;;;;;;4967080;28;20046;-78
2023/01/20 09:04:38;;;;;;;1.45;1.38;;;0.20;99.90;;;;;;4970340;28;20038;-78
2023/01/20 09:07:03;;;;;;;;;;;0.20;99.90;;;;;;4996634;28;20211;-78
2023/01/20 09:09:30;;;;;;;0.77;0.77;;;0.20;99.90;;;;;;4987697;28;20012;-78
2023/01/20 09:11:55;;;;;;;;;;;0.20;99.90;;;;;;4983749;28;20939;-78
2023/01/20 09:14:22;;;;;;;1.00;1.00;;;0.20;99.90;;;;;;4986931;28;19921;-78
2023/01/20 09:16:48;;;;;;;0.70;0.70;;;0.30;99.90;;;;;;4998247;28;20041;-78
2023/01/20 09:19:14;;;;;;;0.70;0.70;;;0.30;99.90;;;;;;4988502;28;20370;-78
2023/01/20 09:21:40;;;;;;;0.85;0.85;;;0.30;99.90;;;;;;4984760;28;20493;-78
2023/01/20 09:24:06;;;;;;;0.80;0.80;;;0.30;99.90;;;;;;4969405;28;20133;-78
2023/01/20 09:26:40;;;;;;;1.20;0.90;;;0.30;99.90;;;;;;4989662;28;20073;-78
2023/01/20 09:29:14;;;;;;;1.27;1.23;;;0.40;99.90;;;;;;4985774;28;20149;-79
2023/01/20 09:31:48;;;;;;;0.90;0.90;;;0.40;99.90;;;;;;4992248;28;20484;-78
2023/01/20 09:34:18;;;;;;;1.25;1.25;;;0.40;99.90;;;;;;4990208;28;20039;-78
2023/01/20 09:36:44;;;;;;;1.02;0.93;;;0.40;99.90;;;;;;4985172;28;20042;-78
2023/01/20 09:45:21;;;;;;;0.77;0.77;;;0.50;99.90;;;;;;4985956;28;20045;-78
2023/01/20 09:47:48;;;;;;;1.08;1.08;;;0.50;99.90;;;;;;5001033;28;20075;-78
2023/01/20 09:53:58;;;;;;;0.90;0.90;;;0.50;99.90;;;;;;4976118;28;20058;-79
2023/01/20 09:56:26;;;;;;;1.67;1.42;;;0.60;99.90;;;;;;4987508;28;20129;-79
2023/01/20 09:59:08;;;;;;;1.23;1.17;;;0.60;99.90;;;;;;4986721;28;20042;-79
2023/01/20 10:01:56;;;;;;;0.70;0.70;;;0.60;99.90;;;;;;4969806;28;20042;-79
2023/01/20 10:04:36;;;;;;;1.02;1.02;;;0.60;99.90;;;;;;4986878;28;20054;-79
2023/01/20 10:07:20;;;;;;;6.00;1.40;;;0.60;99.90;;;;;;4988104;28;20046;-79
2023/01/20 10:10:22;;;;;;;0.80;0.80;;;0.60;99.90;;;;;;4986286;28;20467;-79
2023/01/20 10:13:06;;;;;;;0.90;0.90;;;0.70;99.90;;;;;;4977742;28;20460;-79
2023/01/20 10:15:39;;;;;;;0.60;0.60;;;0.80;99.90;;;;;;4999594;28;20030;-79
2023/01/20 10:18:25;;;;;;;0.70;0.70;;;0.60;99.90;;;;;;4982351;28;20046;-78
2023/01/20 10:21:04;;;;;;;0.80;0.80;;;0.70;99.90;;;;;;4967634;28;20038;-79
2023/01/20 10:23:39;;;;;;;0.50;0.50;;;0.70;99.90;;;;;;4999261;28;20369;-78
2023/01/20 10:26:30;;;;;;;0.80;0.80;;;0.70;99.90;;;;;;4981710;28;20631;-78
2023/01/20 10:29:01;;;;;;;0.52;0.52;;;0.70;99.90;;;;;;5000930;28;20042;-79
2023/01/20 10:31:34;;;;;;;0.80;0.80;;;0.70;99.90;;;;;;4984338;28;20042;-79
2023/01/20 10:34:11;;;;;;;0.90;0.90;;;0.60;99.90;;;;;;4984181;28;20400;-79
2023/01/20 10:36:42;;;;;;;1.98;1.25;;;0.70;99.90;;;;;;4994103;28;20161;-79
2023/01/20 10:39:29;;;;;;;0.98;0.98;;;0.60;99.90;;;;;;4998438;28;20042;-79
2023/01/20 10:42:03;;;;;;;4.05;3.80;;;0.60;99.90;;;;;;4985232;28;20042;-79
2023/01/20 10:44:33;;;;;;;2.22;2.03;;;0.60;99.90;;;;;;4969074;28;20046;-79
2023/01/20 10:47:23;;;;;;;0.88;0.88;;;0.60;99.90;;;;;;4984121;28;20057;-79
2023/01/20 10:50:14;;;;;;;0.50;0.50;;;0.70;99.90;;;;;;4981913;28;20046;-80
2023/01/20 10:52:50;;;;;;;0.60;0.60;;;0.70;99.90;;;;;;4984148;28;20419;-80
2023/01/20 10:55:35;;;;;;;0.68;0.68;;;0.80;99.90;;;;;;4984242;28;20045;-80
2023/01/20 10:58:11;;;;;;;1.00;1.00;;;0.80;99.90;;;;;;4980417;28;20496;-78
2023/01/20 11:00:40;;;;;;;0.50;0.50;;;0.80;99.90;;;;;;4994265;28;20038;-78
2023/01/20 11:03:09;;;;;;;0.98;0.98;;;1.00;99.90;;;;;;4992560;28;20501;-78
2023/01/20 11:05:37;;;;;;;0.50;0.50;;;1.00;99.90;;;;;;4993080;28;20034;-78
2023/01/20 11:08:24;;;;;;;0.68;0.68;;;0.80;99.90;;;;;;4996286;28;20053;-79
2023/01/20 11:10:55;;;;;;;0.50;0.50;;;0.80;99.90;;;;;;4992336;28;20058;-79
2023/01/20 11:13:21;;;;;;;0.60;0.60;;;0.80;99.90;;;;;;4973887;28;20061;-78
2023/01/20 11:15:57;;;;;;;0.73;0.73;;;0.80;99.90;;;;;;4971127;28;20050;-79
2023/01/20 11:18:29;;;;;;;0.82;0.82;;;0.80;99.90;;;;;;4991763;28;20049;-79
2023/01/20 11:21:19;;;;;;;0.63;0.63;;;0.90;99.90;;;;;;4991101;28;20050;-79
2023/01/20 11:23:56;;;;;;;0.75;0.75;;;0.90;99.90;;;;;;4973834;28;20369;-78
2023/01/20 11:26:30;;;;;;;1.17;1.15;;;0.80;99.90;;;;;;4990522;28;20104;-78
2023/01/20 11:29:00;;;;;;;0.75;0.75;;;0.90;99.90;;;;;;4991583;28;20377;-79
2023/01/20 11:31:40;;;;;;;1.35;1.35;;;0.90;99.90;;;;;;4991381;28;20038;-79
2023/01/20 11:34:25;;;;;;;0.70;0.70;;;0.90;99.90;;;;;;4980114;28;20058;-79
2023/01/20 11:37:20;;;;;;;0.80;0.80;;;0.80;99.90;;;;;;4995326;28;20121;-79
2023/01/20 11:40:08;;;;;;;0.70;0.70;;;0.90;99.90;;;;;;4984805;28;20050;-79
2023/01/20 11:42:45;;;;;;;0.90;0.90;;;0.90;99.90;;;;;;4994511;28;20057;-79
2023/01/20 11:45:35;;;;;;;0.60;0.60;;;0.90;99.90;;;;;;4979532;28;20053;-79
2023/01/20 11:48:05;;;;;;;0.70;0.70;;;0.90;99.90;;;;;;4992013;28;20058;-78
2023/01/20 11:50:39;;;;;;;0.70;0.70;;;0.90;99.90;;;;;;4990800;28;20042;-80
2023/01/20 11:53:30;;;;;;;0.75;0.75;;;0.90;99.90;;;;;;4993488;28;20152;-80
2023/01/20 11:56:13;;;;;;;0.68;0.68;;;0.90;99.90;;;;;;4991385;28;20485;-80
2023/01/20 11:58:54;;;;;;;0.80;0.80;;;0.90;99.90;;;;;;4995638;28;20132;-80
2023/01/20 12:01:28;;;;;;;0.60;0.60;;;1.10;99.90;;;;;;4976125;28;20039;-79
2023/01/20 12:04:30;;;;;;;0.80;0.80;;;1.00;99.90;;;;;;4992315;28;20042;-79
2023/01/20 12:07:11;;;;;;;0.68;0.68;;;0.90;99.90;;;;;;4978069;28;20042;-80
2023/01/20 12:09:43;;;;;;;0.70;0.70;;;0.90;99.90;;;;;;4978721;28;20120;-80
2023/01/20 12:12:23;;;;;;;0.70;0.70;;;0.90;99.90;;;;;;4986851;28;20202;-79
2023/01/20 12:15:13;;;;;;;0.60;0.60;;;0.90;99.90;;;;;;4970112;28;20073;-79
2023/01/20 12:18:11;;;;;;;0.98;0.98;;;1.00;99.90;;;;;;4988232;28;20536;-80
2023/01/20 12:20:58;;;;;;;0.60;0.60;;;1.00;99.90;;;;;;4988373;28;20038;-80
2023/01/20 12:23:49;;;;;;;0.80;0.80;;;1.00;99.90;;;;;;4987722;28;20388;-79
2023/01/20 12:26:17;;;;;;;1.88;1.75;;;1.00;99.90;;;;;;4984675;28;20160;-80
2023/01/20 12:28:58;;;;;;;0.70;0.70;;;1.00;99.90;;;;;;4987807;28;20491;-80
2023/01/20 12:31:24;;;;;;;0.68;0.68;;;1.20;99.90;;;;;;4989986;28;20100;-80
2023/01/20 12:33:52;;;;;;;0.63;0.63;;;1.10;99.90;;;;;;4992367;28;20433;-79
2023/01/20 12:36:56;;;;;;;0.60;0.60;;;1.10;99.90;;;;;;4988569;28;20100;-79
2023/01/20 12:39:27;;;;;;;0.70;0.70;;;1.10;99.90;;;;;;4972608;28;20100;-79
2023/01/20 12:42:11;;;;;;;1.67;1.52;;;1.10;99.90;;;;;;4992107;28;20805;-79
2023/01/20 12:44:58;;;;;;;0.85;0.85;;;1.10;99.90;;;;;;4971377;28;20042;-79
2023/01/20 12:47:39;;;;;;;0.60;0.60;;;1.10;99.90;;;;;;4975062;28;20065;-79
2023/01/20 12:50:30;;;;;;;0.60;0.60;;;1.10;99.90;;;;;;4986289;28;20104;-79
2023/01/20 12:53:09;;;;;;;0.60;0.60;;;1.10;99.90;;;;;;4999365;28;20054;-79
2023/01/20 12:55:45;;;;;;;0.63;0.63;;;1.00;99.90;;;;;;4990608;28;20097;-79
2023/01/20 12:58:32;;;;;;;0.60;0.60;;;1.00;99.90;;;;;;4988492;28;20345;-79
2023/01/20 13:01:10;;;;;;;1.00;1.00;;;1.40;99.90;;;;;;5007227;28;20088;-79
2023/01/20 13:03:41;;;;;;;0.75;0.75;;;1.00;99.90;;;;;;4987556;28;20125;-79
2023/01/20 13:06:29;;;;;;;0.60;0.60;;;1.00;99.90;;;;;;4989857;28;20164;-79
2023/01/20 13:09:16;;;;;;;0.70;0.70;;;0.90;99.90;;;;;;4985101;28;20465;-79
2023/01/20 13:12:17;;;;;;;0.60;0.60;;;0.90;99.90;;;;;;4984814;28;20081;-79
2023/01/20 13:15:27;;;;;;;0.50;0.50;;;1.00;99.90;;;;;;4985363;28;20125;-79
2023/01/20 13:18:34;;;;;;;0.68;0.68;;;0.90;99.90;;;;;;4990686;28;20046;-80
2023/01/20 13:20:59;;;;;;;0.60;0.60;;;1.00;99.90;;;;;;4988215;28;20386;-79
2023/01/20 13:23:33;;;;;;;0.60;0.60;;;1.60;99.90;;;;;;4985229;28;20048;-79
2023/01/20 13:26:00;;;;;;;1.92;1.27;;;2.00;99.90;;;;;;4985372;28;20046;-79
2023/01/20 13:28:29;;;;;;;0.70;0.70;;;0.90;99.90;;;;;;4985976;28;20101;-79
2023/01/20 13:30:57;;;;;;;1.13;1.13;;;1.00;99.90;;;;;;4988823;28;20125;-79